sensor_id;sensor_type;location;lat;lon;timestamp;P1;durP1;ratioP1;P2;durP2;ratioP2
77802;SDS011;66993;48.256;16.422;2024-01-11T00:04:45;59.7;;;25.6;;
77802;SDS011;66993;48.256;16.422;2024-01-11T00:09:46;56.0;;;24.8;;
77802;SDS011;66993;48.256;16.422;2024-01-11T00:14:47;55.8;;;24.9;;
77802;SDS011;66993;48.256;16.422;2024-01-11T00:19:48;55.5;;;25.1;;
77802;SDS011;66993;48.256;16.422;2024-01-11T00:24:50;61.7;;;24.7;;
77802;SDS011;66993;48.256;16.422;2024-01-11T00:29:51;58.5;;;25.2;;
77802;SDS011;66993;48.256;16.422;2024-01-11T00:34:52;55.1;;;24.2;;
77802;SDS011;66993;48.256;16.422;2024-01-11T00:39:54;52.4;;;23.9;;
77802;SDS011;66993;48.256;16.422;2024-01-11T00:44:55;54.8;;;24.3;;
77802;SDS011;66993;48.256;16.422;2024-01-11T00:49:56;56.9;;;25.4;;
77802;SDS011;66993;48.256;16.422;2024-01-11T00:54:58;60.9;;;24.4;;
77802;SDS011;66993;48.256;16.422;2024-01-11T00:59:59;54.0;;;22.4;;
77802;SDS011;66993;48.256;16.422;2024-01-11T01:05:01;56.4;;;24.0;;
77802;SDS011;66993;48.256;16.422;2024-01-11T01:10:02;56.9;;;23.7;;
77802;SDS011;66993;48.256;16.422;2024-01-11T01:15:04;55.4;;;24.7;;
77802;SDS011;66993;48.256;16.422;2024-01-11T01:20:05;54.9;;;23.9;;
77802;SDS011;66993;48.256;16.422;2024-01-11T01:25:09;57.6;;;23.5;;
77802;SDS011;66993;48.256;16.422;2024-01-11T01:30:07;45.4;;;22.1;;
77802;SDS011;66993;48.256;16.422;2024-01-11T01:35:08;49.8;;;21.9;;
77802;SDS011;66993;48.256;16.422;2024-01-11T01:40:10;54.4;;;23.0;;
77802;SDS011;66993;48.256;16.422;2024-01-11T01:45:11;55.8;;;23.8;;
77802;SDS011;66993;48.256;16.422;2024-01-11T01:50:12;64.0;;;27.1;;
77802;SDS011;66993;48.256;16.422;2024-01-11T01:55:15;58.8;;;25.8;;
77802;SDS011;66993;48.256;16.422;2024-01-11T02:00:15;59.6;;;24.9;;
77802;SDS011;66993;48.256;16.422;2024-01-11T02:05:19;59.1;;;24.8;;
77802;SDS011;66993;48.256;16.422;2024-01-11T02:10:18;59.4;;;26.1;;
77802;SDS011;66993;48.256;16.422;2024-01-11T02:15:24;57.9;;;23.9;;
77802;SDS011;66993;48.256;16.422;2024-01-11T02:20:21;62.3;;;24.6;;
77802;SDS011;66993;48.256;16.422;2024-01-11T02:25:22;58.1;;;25.1;;
77802;SDS011;66993;48.256;16.422;2024-01-11T02:30:23;58.8;;;25.2;;
77802;SDS011;66993;48.256;16.422;2024-01-11T02:35:24;56.2;;;25.3;;
77802;SDS011;66993;48.256;16.422;2024-01-11T02:40:26;56.6;;;23.9;;
77802;SDS011;66993;48.256;16.422;2024-01-11T02:45:27;62.4;;;27.7;;
77802;SDS011;66993;48.256;16.422;2024-01-11T02:50:29;55.5;;;25.0;;
77802;SDS011;66993;48.256;16.422;2024-01-11T02:55:30;54.1;;;23.2;;
77802;SDS011;66993;48.256;16.422;2024-01-11T03:00:32;56.6;;;24.1;;
77802;SDS011;66993;48.256;16.422;2024-01-11T03:05:33;53.7;;;23.5;;
77802;SDS011;66993;48.256;16.422;2024-01-11T03:10:36;59.1;;;26.5;;
77802;SDS011;66993;48.256;16.422;2024-01-11T03:15:36;58.5;;;26.5;;
77802;SDS011;66993;48.256;16.422;2024-01-11T03:20:38;58.6;;;24.3;;
77802;SDS011;66993;48.256;16.422;2024-01-11T03:25:38;57.4;;;24.9;;
77802;SDS011;66993;48.256;16.422;2024-01-11T03:30:40;58.0;;;24.6;;
77802;SDS011;66993;48.256;16.422;2024-01-11T03:35:41;57.4;;;25.9;;
77802;SDS011;66993;48.256;16.422;2024-01-11T03:40:43;49.2;;;22.7;;
77802;SDS011;66993;48.256;16.422;2024-01-11T03:45:44;51.3;;;22.6;;
77802;SDS011;66993;48.256;16.422;2024-01-11T03:50:50;57.0;;;25.2;;
77802;SDS011;66993;48.256;16.422;2024-01-11T03:55:47;58.0;;;24.4;;
77802;SDS011;66993;48.256;16.422;2024-01-11T04:00:48;56.4;;;26.4;;
77802;SDS011;66993;48.256;16.422;2024-01-11T04:05:52;57.1;;;23.8;;
77802;SDS011;66993;48.256;16.422;2024-01-11T04:10:51;50.9;;;22.2;;
77802;SDS011;66993;48.256;16.422;2024-01-11T04:15:53;53.3;;;25.2;;
77802;SDS011;66993;48.256;16.422;2024-01-11T04:20:53;53.3;;;23.2;;
77802;SDS011;66993;48.256;16.422;2024-01-11T04:25:56;53.5;;;24.6;;
77802;SDS011;66993;48.256;16.422;2024-01-11T04:30:56;50.2;;;24.5;;
77802;SDS011;66993;48.256;16.422;2024-01-11T04:35:58;50.2;;;21.4;;
77802;SDS011;66993;48.256;16.422;2024-01-11T04:40:59;53.0;;;23.7;;
77802;SDS011;66993;48.256;16.422;2024-01-11T04:46:00;56.2;;;23.5;;
77802;SDS011;66993;48.256;16.422;2024-01-11T04:51:01;58.5;;;26.1;;
77802;SDS011;66993;48.256;16.422;2024-01-11T04:56:03;55.0;;;24.9;;
77802;SDS011;66993;48.256;16.422;2024-01-11T05:01:04;52.0;;;23.7;;
77802;SDS011;66993;48.256;16.422;2024-01-11T05:06:05;58.5;;;26.1;;
77802;SDS011;66993;48.256;16.422;2024-01-11T05:11:07;60.5;;;26.5;;
77802;SDS011;66993;48.256;16.422;2024-01-11T05:21:10;68.3;;;28.0;;
77802;SDS011;66993;48.256;16.422;2024-01-11T05:26:12;70.2;;;28.1;;
77802;SDS011;66993;48.256;16.422;2024-01-11T05:31:13;69.4;;;32.3;;
77802;SDS011;66993;48.256;16.422;2024-01-11T05:36:14;72.8;;;32.3;;
77802;SDS011;66993;48.256;16.422;2024-01-11T05:41:15;72.7;;;31.8;;
77802;SDS011;66993;48.256;16.422;2024-01-11T05:46:21;75.0;;;29.9;;
77802;SDS011;66993;48.256;16.422;2024-01-11T05:51:18;73.5;;;31.0;;
77802;SDS011;66993;48.256;16.422;2024-01-11T05:56:19;70.7;;;31.0;;
77802;SDS011;66993;48.256;16.422;2024-01-11T06:01:20;66.9;;;28.2;;
77802;SDS011;66993;48.256;16.422;2024-01-11T06:06:22;69.2;;;29.3;;
77802;SDS011;66993;48.256;16.422;2024-01-11T06:11:23;64.7;;;27.2;;
77802;SDS011;66993;48.256;16.422;2024-01-11T06:16:24;66.2;;;27.4;;
77802;SDS011;66993;48.256;16.422;2024-01-11T06:21:26;57.7;;;26.1;;
77802;SDS011;66993;48.256;16.422;2024-01-11T06:26:27;60.1;;;25.1;;
77802;SDS011;66993;48.256;16.422;2024-01-11T06:31:29;62.5;;;27.5;;
77802;SDS011;66993;48.256;16.422;2024-01-11T06:36:30;64.3;;;29.3;;
77802;SDS011;66993;48.256;16.422;2024-01-11T06:41:31;58.4;;;26.7;;
77802;SDS011;66993;48.256;16.422;2024-01-11T06:46:32;65.8;;;29.0;;
77802;SDS011;66993;48.256;16.422;2024-01-11T06:51:34;70.2;;;28.6;;
77802;SDS011;66993;48.256;16.422;2024-01-11T06:56:35;64.5;;;28.7;;
77802;SDS011;66993;48.256;16.422;2024-01-11T07:01:37;67.6;;;30.0;;
77802;SDS011;66993;48.256;16.422;2024-01-11T07:06:38;65.3;;;30.7;;
77802;SDS011;66993;48.256;16.422;2024-01-11T07:11:41;65.2;;;29.4;;
77802;SDS011;66993;48.256;16.422;2024-01-11T07:16:40;67.5;;;29.7;;
77802;SDS011;66993;48.256;16.422;2024-01-11T07:21:42;68.1;;;31.4;;
77802;SDS011;66993;48.256;16.422;2024-01-11T07:26:43;70.7;;;31.5;;
77802;SDS011;66993;48.256;16.422;2024-01-11T07:31:48;68.5;;;32.1;;
77802;SDS011;66993;48.256;16.422;2024-01-11T07:36:46;69.2;;;32.6;;
77802;SDS011;66993;48.256;16.422;2024-01-11T07:41:47;60.7;;;27.9;;
77802;SDS011;66993;48.256;16.422;2024-01-11T07:46:49;62.3;;;29.6;;
77802;SDS011;66993;48.256;16.422;2024-01-11T07:51:50;71.5;;;32.8;;
77802;SDS011;66993;48.256;16.422;2024-01-11T07:56:51;64.3;;;28.1;;
77802;SDS011;66993;48.256;16.422;2024-01-11T08:01:52;70.5;;;32.9;;
77802;SDS011;66993;48.256;16.422;2024-01-11T08:06:54;64.2;;;29.6;;
77802;SDS011;66993;48.256;16.422;2024-01-11T08:11:55;69.8;;;35.3;;
77802;SDS011;66993;48.256;16.422;2024-01-11T08:16:57;65.2;;;30.3;;
77802;SDS011;66993;48.256;16.422;2024-01-11T08:21:58;63.3;;;27.4;;
77802;SDS011;66993;48.256;16.422;2024-01-11T08:26:59;66.1;;;31.0;;
77802;SDS011;66993;48.256;16.422;2024-01-11T08:32:01;66.2;;;29.7;;
77802;SDS011;66993;48.256;16.422;2024-01-11T08:37:02;65.5;;;30.1;;
77802;SDS011;66993;48.256;16.422;2024-01-11T08:42:03;64.8;;;29.0;;
77802;SDS011;66993;48.256;16.422;2024-01-11T08:47:05;62.3;;;26.7;;
77802;SDS011;66993;48.256;16.422;2024-01-11T08:52:07;61.5;;;28.3;;
77802;SDS011;66993;48.256;16.422;2024-01-11T08:57:07;61.1;;;26.9;;
77802;SDS011;66993;48.256;16.422;2024-01-11T09:02:09;61.8;;;27.6;;
77802;SDS011;66993;48.256;16.422;2024-01-11T09:07:10;61.6;;;27.1;;
77802;SDS011;66993;48.256;16.422;2024-01-11T09:12:11;58.5;;;26.1;;
77802;SDS011;66993;48.256;16.422;2024-01-11T09:17:13;56.8;;;26.9;;
77802;SDS011;66993;48.256;16.422;2024-01-11T09:22:14;55.1;;;24.8;;
77802;SDS011;66993;48.256;16.422;2024-01-11T09:27:15;58.5;;;27.5;;
77802;SDS011;66993;48.256;16.422;2024-01-11T09:32:17;58.5;;;26.0;;
77802;SDS011;66993;48.256;16.422;2024-01-11T09:37:18;62.0;;;25.1;;
77802;SDS011;66993;48.256;16.422;2024-01-11T09:42:19;54.1;;;24.7;;
77802;SDS011;66993;48.256;16.422;2024-01-11T09:47:21;53.4;;;24.7;;
77802;SDS011;66993;48.256;16.422;2024-01-11T09:52:23;54.4;;;26.3;;
77802;SDS011;66993;48.256;16.422;2024-01-11T09:57:29;60.9;;;29.9;;
77802;SDS011;66993;48.256;16.422;2024-01-11T10:02:26;55.6;;;26.1;;
77802;SDS011;66993;48.256;16.422;2024-01-11T10:07:26;58.6;;;26.6;;
77802;SDS011;66993;48.256;16.422;2024-01-11T10:12:28;49.5;;;24.0;;
77802;SDS011;66993;48.256;16.422;2024-01-11T10:17:29;56.5;;;30.0;;
77802;SDS011;66993;48.256;16.422;2024-01-11T10:22:30;53.1;;;25.5;;
77802;SDS011;66993;48.256;16.422;2024-01-11T10:27:32;55.5;;;27.8;;
77802;SDS011;66993;48.256;16.422;2024-01-11T10:32:35;57.5;;;26.1;;
77802;SDS011;66993;48.256;16.422;2024-01-11T10:37:34;55.9;;;26.7;;
77802;SDS011;66993;48.256;16.422;2024-01-11T10:42:36;53.1;;;25.5;;
77802;SDS011;66993;48.256;16.422;2024-01-11T10:47:37;54.7;;;21.9;;
77802;SDS011;66993;48.256;16.422;2024-01-11T10:52:45;48.9;;;23.8;;
77802;SDS011;66993;48.256;16.422;2024-01-11T10:57:40;46.8;;;22.0;;
77802;SDS011;66993;48.256;16.422;2024-01-11T11:02:41;54.7;;;26.9;;
77802;SDS011;66993;48.256;16.422;2024-01-11T11:07:43;48.4;;;23.5;;
77802;SDS011;66993;48.256;16.422;2024-01-11T11:12:46;49.1;;;23.5;;
77802;SDS011;66993;48.256;16.422;2024-01-11T11:17:45;50.1;;;24.4;;
77802;SDS011;66993;48.256;16.422;2024-01-11T11:22:48;48.6;;;24.0;;
77802;SDS011;66993;48.256;16.422;2024-01-11T11:27:48;48.7;;;22.7;;
77802;SDS011;66993;48.256;16.422;2024-01-11T11:32:49;47.9;;;23.5;;
77802;SDS011;66993;48.256;16.422;2024-01-11T11:37:53;46.4;;;22.2;;
77802;SDS011;66993;48.256;16.422;2024-01-11T11:42:52;50.5;;;22.7;;
77802;SDS011;66993;48.256;16.422;2024-01-11T11:47:53;49.9;;;25.6;;
77802;SDS011;66993;48.256;16.422;2024-01-11T11:52:57;44.8;;;20.8;;
77802;SDS011;66993;48.256;16.422;2024-01-11T11:57:56;48.9;;;22.4;;
77802;SDS011;66993;48.256;16.422;2024-01-11T12:02:57;44.8;;;21.7;;
77802;SDS011;66993;48.256;16.422;2024-01-11T12:07:58;42.3;;;20.9;;
77802;SDS011;66993;48.256;16.422;2024-01-11T12:13:01;48.4;;;24.4;;
77802;SDS011;66993;48.256;16.422;2024-01-11T12:18:01;44.2;;;22.5;;
77802;SDS011;66993;48.256;16.422;2024-01-11T12:23:03;43.7;;;22.9;;
77802;SDS011;66993;48.256;16.422;2024-01-11T12:28:04;44.8;;;23.5;;
77802;SDS011;66993;48.256;16.422;2024-01-11T12:33:05;40.1;;;17.9;;
77802;SDS011;66993;48.256;16.422;2024-01-11T12:38:06;44.8;;;21.5;;
77802;SDS011;66993;48.256;16.422;2024-01-11T12:43:08;41.3;;;20.9;;
77802;SDS011;66993;48.256;16.422;2024-01-11T12:48:09;48.8;;;21.5;;
77802;SDS011;66993;48.256;16.422;2024-01-11T12:53:16;44.4;;;22.2;;
77802;SDS011;66993;48.256;16.422;2024-01-11T12:58:12;47.4;;;21.6;;
77802;SDS011;66993;48.256;16.422;2024-01-11T13:03:13;46.7;;;23.9;;
77802;SDS011;66993;48.256;16.422;2024-01-11T13:08:15;44.7;;;22.1;;
77802;SDS011;66993;48.256;16.422;2024-01-11T13:13:16;46.8;;;22.5;;
77802;SDS011;66993;48.256;16.422;2024-01-11T13:18:17;43.9;;;20.6;;
77802;SDS011;66993;48.256;16.422;2024-01-11T13:23:19;45.2;;;21.1;;
77802;SDS011;66993;48.256;16.422;2024-01-11T13:28:20;49.5;;;25.3;;
77802;SDS011;66993;48.256;16.422;2024-01-11T13:33:21;43.8;;;21.7;;
77802;SDS011;66993;48.256;16.422;2024-01-11T13:38:25;43.2;;;22.0;;
77802;SDS011;66993;48.256;16.422;2024-01-11T13:43:23;39.6;;;19.9;;
77802;SDS011;66993;48.256;16.422;2024-01-11T13:48:25;38.0;;;18.3;;
77802;SDS011;66993;48.256;16.422;2024-01-11T13:53:26;40.7;;;19.4;;
77802;SDS011;66993;48.256;16.422;2024-01-11T13:58:27;39.1;;;18.3;;
77802;SDS011;66993;48.256;16.422;2024-01-11T14:03:29;40.1;;;20.1;;
77802;SDS011;66993;48.256;16.422;2024-01-11T14:08:30;36.7;;;17.5;;
77802;SDS011;66993;48.256;16.422;2024-01-11T14:13:32;36.3;;;17.6;;
77802;SDS011;66993;48.256;16.422;2024-01-11T14:18:32;36.2;;;18.2;;
77802;SDS011;66993;48.256;16.422;2024-01-11T14:23:34;33.1;;;17.0;;
77802;SDS011;66993;48.256;16.422;2024-01-11T14:28:35;34.2;;;16.8;;
77802;SDS011;66993;48.256;16.422;2024-01-11T14:33:36;34.7;;;17.1;;
77802;SDS011;66993;48.256;16.422;2024-01-11T14:38:37;31.1;;;14.8;;
77802;SDS011;66993;48.256;16.422;2024-01-11T14:43:39;33.8;;;16.1;;
77802;SDS011;66993;48.256;16.422;2024-01-11T14:48:40;29.2;;;14.7;;
77802;SDS011;66993;48.256;16.422;2024-01-11T14:53:42;33.0;;;16.2;;
77802;SDS011;66993;48.256;16.422;2024-01-11T14:58:43;29.6;;;15.4;;
77802;SDS011;66993;48.256;16.422;2024-01-11T15:03:44;32.0;;;15.9;;
77802;SDS011;66993;48.256;16.422;2024-01-11T15:08:45;35.4;;;15.8;;
77802;SDS011;66993;48.256;16.422;2024-01-11T15:13:47;32.7;;;16.2;;
77802;SDS011;66993;48.256;16.422;2024-01-11T15:18:48;38.1;;;17.6;;
77802;SDS011;66993;48.256;16.422;2024-01-11T15:23:49;32.0;;;16.3;;
77802;SDS011;66993;48.256;16.422;2024-01-11T15:28:50;33.3;;;15.3;;
77802;SDS011;66993;48.256;16.422;2024-01-11T15:33:52;35.8;;;16.5;;
77802;SDS011;66993;48.256;16.422;2024-01-11T15:38:53;38.2;;;17.5;;
77802;SDS011;66993;48.256;16.422;2024-01-11T15:43:55;43.7;;;19.4;;
77802;SDS011;66993;48.256;16.422;2024-01-11T15:48:56;37.2;;;17.8;;
77802;SDS011;66993;48.256;16.422;2024-01-11T15:53:58;35.0;;;16.3;;
77802;SDS011;66993;48.256;16.422;2024-01-11T15:58:58;36.8;;;18.5;;
77802;SDS011;66993;48.256;16.422;2024-01-11T16:04:00;35.0;;;17.0;;
77802;SDS011;66993;48.256;16.422;2024-01-11T16:09:01;34.0;;;17.8;;
77802;SDS011;66993;48.256;16.422;2024-01-11T16:14:02;40.6;;;20.2;;
77802;SDS011;66993;48.256;16.422;2024-01-11T16:19:04;34.2;;;17.4;;
77802;SDS011;66993;48.256;16.422;2024-01-11T16:24:05;35.8;;;18.8;;
77802;SDS011;66993;48.256;16.422;2024-01-11T16:29:06;31.7;;;16.9;;
77802;SDS011;66993;48.256;16.422;2024-01-11T16:34:08;36.7;;;18.2;;
77802;SDS011;66993;48.256;16.422;2024-01-11T16:39:09;35.6;;;16.8;;
77802;SDS011;66993;48.256;16.422;2024-01-11T16:44:16;33.7;;;16.0;;
77802;SDS011;66993;48.256;16.422;2024-01-11T16:49:11;34.0;;;17.7;;
77802;SDS011;66993;48.256;16.422;2024-01-11T16:54:13;35.4;;;17.4;;
77802;SDS011;66993;48.256;16.422;2024-01-11T16:59:14;40.2;;;20.1;;
77802;SDS011;66993;48.256;16.422;2024-01-11T17:04:15;41.1;;;19.9;;
77802;SDS011;66993;48.256;16.422;2024-01-11T17:09:17;40.3;;;19.4;;
77802;SDS011;66993;48.256;16.422;2024-01-11T17:14:18;39.8;;;19.2;;
77802;SDS011;66993;48.256;16.422;2024-01-11T17:19:19;39.4;;;19.1;;
77802;SDS011;66993;48.256;16.422;2024-01-11T17:24:21;38.5;;;19.1;;
77802;SDS011;66993;48.256;16.422;2024-01-11T17:29:22;36.3;;;16.8;;
77802;SDS011;66993;48.256;16.422;2024-01-11T17:34:23;30.2;;;14.7;;
77802;SDS011;66993;48.256;16.422;2024-01-11T17:39:25;38.9;;;19.7;;
77802;SDS011;66993;48.256;16.422;2024-01-11T17:44:26;37.7;;;18.7;;
77802;SDS011;66993;48.256;16.422;2024-01-11T17:49:27;41.0;;;19.5;;
77802;SDS011;66993;48.256;16.422;2024-01-11T17:54:28;32.2;;;18.2;;
77802;SDS011;66993;48.256;16.422;2024-01-11T17:59:30;42.1;;;18.8;;
77802;SDS011;66993;48.256;16.422;2024-01-11T18:04:31;37.6;;;19.0;;
77802;SDS011;66993;48.256;16.422;2024-01-11T18:09:34;34.4;;;16.8;;
77802;SDS011;66993;48.256;16.422;2024-01-11T18:14:34;36.4;;;18.0;;
77802;SDS011;66993;48.256;16.422;2024-01-11T18:19:35;30.1;;;14.8;;
77802;SDS011;66993;48.256;16.422;2024-01-11T18:24:36;26.7;;;12.7;;
77802;SDS011;66993;48.256;16.422;2024-01-11T18:29:38;30.3;;;13.5;;
77802;SDS011;66993;48.256;16.422;2024-01-11T18:34:39;28.0;;;13.7;;
77802;SDS011;66993;48.256;16.422;2024-01-11T18:39:45;27.3;;;13.2;;
77802;SDS011;66993;48.256;16.422;2024-01-11T18:44:42;25.9;;;13.1;;
77802;SDS011;66993;48.256;16.422;2024-01-11T18:49:43;27.2;;;13.3;;
77802;SDS011;66993;48.256;16.422;2024-01-11T18:54:46;28.2;;;14.3;;
77802;SDS011;66993;48.256;16.422;2024-01-11T18:59:45;27.3;;;13.7;;
77802;SDS011;66993;48.256;16.422;2024-01-11T19:04:47;32.6;;;16.6;;
77802;SDS011;66993;48.256;16.422;2024-01-11T19:09:48;31.4;;;15.7;;
77802;SDS011;66993;48.256;16.422;2024-01-11T19:14:51;29.0;;;13.7;;
77802;SDS011;66993;48.256;16.422;2024-01-11T19:19:50;29.3;;;15.3;;
77802;SDS011;66993;48.256;16.422;2024-01-11T19:24:52;31.4;;;15.4;;
77802;SDS011;66993;48.256;16.422;2024-01-11T19:29:53;26.7;;;13.3;;
77802;SDS011;66993;48.256;16.422;2024-01-11T19:34:56;27.4;;;13.9;;
77802;SDS011;66993;48.256;16.422;2024-01-11T19:39:55;29.5;;;13.7;;
77802;SDS011;66993;48.256;16.422;2024-01-11T19:44:57;30.1;;;14.3;;
77802;SDS011;66993;48.256;16.422;2024-01-11T19:49:58;27.1;;;13.2;;
77802;SDS011;66993;48.256;16.422;2024-01-11T19:55:00;28.2;;;14.8;;
77802;SDS011;66993;48.256;16.422;2024-01-11T20:00:01;30.6;;;14.3;;
77802;SDS011;66993;48.256;16.422;2024-01-11T20:05:02;27.5;;;13.2;;
77802;SDS011;66993;48.256;16.422;2024-01-11T20:10:04;29.4;;;14.7;;
77802;SDS011;66993;48.256;16.422;2024-01-11T20:15:06;32.7;;;14.5;;
77802;SDS011;66993;48.256;16.422;2024-01-11T20:20:06;31.0;;;14.4;;
77802;SDS011;66993;48.256;16.422;2024-01-11T20:25:08;30.8;;;15.0;;
77802;SDS011;66993;48.256;16.422;2024-01-11T20:30:09;32.9;;;14.9;;
77802;SDS011;66993;48.256;16.422;2024-01-11T20:35:13;29.8;;;15.7;;
77802;SDS011;66993;48.256;16.422;2024-01-11T20:40:11;33.1;;;14.8;;
77802;SDS011;66993;48.256;16.422;2024-01-11T20:45:13;31.7;;;15.1;;
77802;SDS011;66993;48.256;16.422;2024-01-11T20:50:14;30.0;;;16.1;;
77802;SDS011;66993;48.256;16.422;2024-01-11T20:55:16;36.5;;;17.9;;
77802;SDS011;66993;48.256;16.422;2024-01-11T21:00:17;32.0;;;15.9;;
77802;SDS011;66993;48.256;16.422;2024-01-11T21:05:18;30.3;;;14.4;;
77802;SDS011;66993;48.256;16.422;2024-01-11T21:10:19;39.3;;;20.9;;
77802;SDS011;66993;48.256;16.422;2024-01-11T21:15:21;43.0;;;20.0;;
77802;SDS011;66993;48.256;16.422;2024-01-11T21:20:22;46.6;;;20.2;;
77802;SDS011;66993;48.256;16.422;2024-01-11T21:25:23;47.7;;;21.6;;
77802;SDS011;66993;48.256;16.422;2024-01-11T21:30:25;46.4;;;22.3;;
77802;SDS011;66993;48.256;16.422;2024-01-11T21:35:28;48.1;;;22.9;;
77802;SDS011;66993;48.256;16.422;2024-01-11T21:40:27;47.6;;;24.5;;
77802;SDS011;66993;48.256;16.422;2024-01-11T21:45:29;51.6;;;22.8;;
77802;SDS011;66993;48.256;16.422;2024-01-11T21:50:30;55.5;;;24.8;;
77802;SDS011;66993;48.256;16.422;2024-01-11T21:55:31;53.6;;;24.2;;
77802;SDS011;66993;48.256;16.422;2024-01-11T22:00:33;56.1;;;26.9;;
77802;SDS011;66993;48.256;16.422;2024-01-11T22:05:39;54.6;;;24.9;;
77802;SDS011;66993;48.256;16.422;2024-01-11T22:10:38;56.5;;;24.1;;
77802;SDS011;66993;48.256;16.422;2024-01-11T22:15:37;61.8;;;28.6;;
77802;SDS011;66993;48.256;16.422;2024-01-11T22:20:39;56.3;;;25.6;;
77802;SDS011;66993;48.256;16.422;2024-01-11T22:25:40;56.8;;;26.2;;
77802;SDS011;66993;48.256;16.422;2024-01-11T22:30:43;57.5;;;27.6;;
77802;SDS011;66993;48.256;16.422;2024-01-11T22:35:42;56.4;;;26.7;;
77802;SDS011;66993;48.256;16.422;2024-01-11T22:40:44;51.4;;;26.6;;
77802;SDS011;66993;48.256;16.422;2024-01-11T22:45:45;50.1;;;25.6;;
77802;SDS011;66993;48.256;16.422;2024-01-11T22:50:46;55.9;;;27.3;;
77802;SDS011;66993;48.256;16.422;2024-01-11T22:55:48;52.8;;;25.7;;
77802;SDS011;66993;48.256;16.422;2024-01-11T23:00:49;57.9;;;27.3;;
77802;SDS011;66993;48.256;16.422;2024-01-11T23:05:50;61.4;;;29.1;;
77802;SDS011;66993;48.256;16.422;2024-01-11T23:10:52;56.7;;;29.7;;
77802;SDS011;66993;48.256;16.422;2024-01-11T23:15:53;59.3;;;27.4;;
77802;SDS011;66993;48.256;16.422;2024-01-11T23:20:54;58.0;;;24.8;;
77802;SDS011;66993;48.256;16.422;2024-01-11T23:25:56;54.0;;;24.1;;
77802;SDS011;66993;48.256;16.422;2024-01-11T23:30:59;60.1;;;28.8;;
77802;SDS011;66993;48.256;16.422;2024-01-11T23:35:58;62.5;;;29.9;;
77802;SDS011;66993;48.256;16.422;2024-01-11T23:41:00;60.3;;;29.2;;
77802;SDS011;66993;48.256;16.422;2024-01-11T23:46:01;56.0;;;26.6;;
77802;SDS011;66993;48.256;16.422;2024-01-11T23:51:03;60.6;;;29.2;;
77802;SDS011;66993;48.256;16.422;2024-01-11T23:56:04;59.0;;;32.0;;
